Storm Events Database

Event Details

Event Thunderstorm Wind
Magnitude 50 kts.
State NEW YORK
County/Area SCHUYLER
WFO BGM
Begin Date 06/25/2009 15:40:00 EST-5
Begin Range 0
Begin Azimuth N
Begin Location CATHARINE
Begin Lat/Lon 42.32/-76.78
End Date 06/25/2009 15:40:00 EST-5
Deaths Direct/Indirect 0/0 (fatality details below, when available...)
Injuries Direct/Indirect 0/0
Property Damage 2.00K
Crop Damage 0.00K
Episode Narrative Showers and thunderstorms developed during the mid afternoon to evening hours ahead of an approaching cold front. Several of the thunderstorms were severe, producing reports of both large hail and damaging winds.
Event Narrative Two large trees were blown down.


All events for this episode:

Location County/Zone St. Date Time T.Z. Type Mag Dth Inj PrD CrD
Totals: 0 0 165.00K 0.00K
FREMONT STEUBEN CO. NY 06/25/2009 14:50 EST-5 Hail 0.88 in. 0 0 0.00K 0.00K
WAYLAND STEUBEN CO. NY 06/25/2009 15:00 EST-5 Hail 0.88 in. 0 0 0.00K 0.00K
CAMERON STEUBEN CO. NY 06/25/2009 15:00 EST-5 Hail 0.75 in. 0 0 0.00K 0.00K
COHOCTON STEUBEN CO. NY 06/25/2009 15:05 EST-5 Thunderstorm Wind 50 kts. EG 0 0 3.00K 0.00K
HOWARD STEUBEN CO. NY 06/25/2009 15:05 EST-5 Thunderstorm Wind 52 kts. EG 0 0 0.00K 0.00K
CANISTEO STEUBEN CO. NY 06/25/2009 15:10 EST-5 Thunderstorm Wind 50 kts. EG 0 0 8.00K 0.00K
SAVONA STEUBEN CO. NY 06/25/2009 15:20 EST-5 Hail 1.00 in. 0 0 0.00K 0.00K
TRUMANSBURG TOMPKINS CO. NY 06/25/2009 15:38 EST-5 Hail 0.75 in. 0 0 0.00K 0.00K
TRUMANSBURG TOMPKINS CO. NY 06/25/2009 15:39 EST-5 Hail 0.75 in. 0 0 0.00K 0.00K
CATHARINE SCHUYLER CO. NY 06/25/2009 15:40 EST-5 Thunderstorm Wind 50 kts. EG 0 0 2.00K 0.00K
PINE VLY CHEMUNG CO. NY 06/25/2009 15:45 EST-5 Thunderstorm Wind 50 kts. EG 0 0 3.00K 0.00K
BIG FLATS CHEMUNG CO. NY 06/25/2009 15:45 EST-5 Thunderstorm Wind 50 kts. EG 0 0 1.00K 0.00K
HORSEHEADS CHEMUNG CO. NY 06/25/2009 15:45 EST-5 Thunderstorm Wind 50 kts. EG 0 0 3.00K 0.00K
(ELM)ELMIRA ARPT CHEMUNG CO. NY 06/25/2009 15:46 EST-5 Thunderstorm Wind 53 kts. MG 0 0 0.00K 0.00K
HORSEHEADS CHEMUNG CO. NY 06/25/2009 15:50 EST-5 Thunderstorm Wind 50 kts. EG 0 0 0.00K 0.00K
ROMULUS SENECA CO. NY 06/25/2009 15:50 EST-5 Hail 1.00 in. 0 0 0.00K 0.00K
BERKSHIRE ONONDAGA CO. NY 06/25/2009 15:58 EST-5 Hail 0.88 in. 0 0 0.00K 0.00K
ITHACA TOMPKINS CO. NY 06/25/2009 16:00 EST-5 Hail 0.75 in. 0 0 0.00K 0.00K
VIRGIL CORTLAND CO. NY 06/25/2009 16:07 EST-5 Hail 0.75 in. 0 0 0.00K 0.00K
BERKSHIRE ONONDAGA CO. NY 06/25/2009 16:10 EST-5 Hail 0.88 in. 0 0 0.00K 0.00K
RIPPLETON MADISON CO. NY 06/25/2009 16:15 EST-5 Thunderstorm Wind 50 kts. EG 0 0 5.00K 0.00K
BROOKTONDALE TOMPKINS CO. NY 06/25/2009 16:20 EST-5 Hail 0.88 in. 0 0 0.00K 0.00K
MAINE BROOME CO. NY 06/25/2009 16:40 EST-5 Thunderstorm Wind 50 kts. EG 0 0 3.00K 0.00K
LISLE BROOME CO. NY 06/25/2009 16:45 EST-5 Thunderstorm Wind 50 kts. EG 0 0 2.00K 0.00K
CHENANGO FORKS BROOME CO. NY 06/25/2009 16:50 EST-5 Thunderstorm Wind 50 kts. EG 0 0 2.00K 0.00K
CHENANGO BRIDGE BROOME CO. NY 06/25/2009 16:50 EST-5 Thunderstorm Wind 50 kts. EG 0 0 2.00K 0.00K
GREENE CHENANGO CO. NY 06/25/2009 16:51 EST-5 Thunderstorm Wind 50 kts. EG 0 0 3.00K 0.00K
SANITARIA SPGS BROOME CO. NY 06/25/2009 16:55 EST-5 Thunderstorm Wind 50 kts. EG 0 0 3.00K 0.00K
WHITNEY PT BROOME CO. NY 06/25/2009 16:55 EST-5 Thunderstorm Wind 50 kts. EG 0 0 3.00K 0.00K
PLYMOUTH CHENANGO CO. NY 06/25/2009 16:59 EST-5 Thunderstorm Wind 50 kts. EG 0 0 2.00K 0.00K
OUAQUAGA BROOME CO. NY 06/25/2009 17:00 EST-5 Thunderstorm Wind 50 kts. EG 0 0 3.00K 0.00K
CHENANGO FORKS BROOME CO. NY 06/25/2009 17:00 EST-5 Hail 1.00 in. 0 0 0.00K 0.00K
OXFORD CHENANGO CO. NY 06/25/2009 17:05 EST-5 Thunderstorm Wind 50 kts. EG 0 0 2.00K 0.00K
BAINBRIDGE CHENANGO CO. NY 06/25/2009 17:07 EST-5 Thunderstorm Wind 50 kts. EG 0 0 3.00K 0.00K
NORWICH CHENANGO CO. NY 06/25/2009 17:09 EST-5 Thunderstorm Wind 50 kts. EG 0 0 2.00K 0.00K
HARPURSVILLE BROOME CO. NY 06/25/2009 17:10 EST-5 Thunderstorm Wind 50 kts. EG 0 0 5.00K 0.00K
OTEGO OTSEGO CO. NY 06/25/2009 17:10 EST-5 Hail 0.75 in. 0 0 0.00K 0.00K
OTEGO OTSEGO CO. NY 06/25/2009 17:25 EST-5 Hail 0.75 in. 0 0 0.00K 0.00K
WINDSOR BROOME CO. NY 06/25/2009 17:26 EST-5 Thunderstorm Wind 50 kts. EG 0 0 3.00K 0.00K
OXFORD CHENANGO CO. NY 06/25/2009 17:38 EST-5 Thunderstorm Wind 50 kts. EG 0 0 2.00K 0.00K
FRANKLIN DELAWARE CO. NY 06/25/2009 17:45 EST-5 Hail 1.00 in. 0 0 0.00K 0.00K
SCHENEVUS OTSEGO CO. NY 06/25/2009 18:25 EST-5 Hail 0.88 in. 0 0 0.00K 0.00K
LIBERTY SULLIVAN CO. NY 06/25/2009 18:40 EST-5 Hail 0.75 in. 0 0 0.00K 0.00K
OTEGO OTSEGO CO. NY 06/25/2009 18:40 EST-5 Flash Flood 0 0 100.00K 0.00K
SWAN LAKE SULLIVAN CO. NY 06/25/2009 18:50 EST-5 Hail 0.88 in. 0 0 0.00K 0.00K
Totals: 0 0 165.00K 0.00K